sensor_id;sensor_type;location;lat;lon;timestamp;P1;durP1;ratioP1;P2;durP2;ratioP2
61978;SDS011;47938;48.176;16.414;2023-01-06T00:00:17;10.50;;;2.25;;
61978;SDS011;47938;48.176;16.414;2023-01-06T00:02:43;16.05;;;2.83;;
61978;SDS011;47938;48.176;16.414;2023-01-06T00:05:09;7.30;;;2.33;;
61978;SDS011;47938;48.176;16.414;2023-01-06T00:07:35;8.20;;;2.33;;
61978;SDS011;47938;48.176;16.414;2023-01-06T00:10:00;8.10;;;2.10;;
61978;SDS011;47938;48.176;16.414;2023-01-06T00:12:26;11.00;;;1.85;;
61978;SDS011;47938;48.176;16.414;2023-01-06T00:14:52;8.88;;;2.05;;
61978;SDS011;47938;48.176;16.414;2023-01-06T00:17:17;7.00;;;2.15;;
61978;SDS011;47938;48.176;16.414;2023-01-06T00:19:43;9.15;;;2.30;;
61978;SDS011;47938;48.176;16.414;2023-01-06T00:22:08;6.15;;;2.08;;
61978;SDS011;47938;48.176;16.414;2023-01-06T00:24:34;8.65;;;2.13;;
61978;SDS011;47938;48.176;16.414;2023-01-06T00:27:00;9.05;;;2.38;;
61978;SDS011;47938;48.176;16.414;2023-01-06T00:29:26;9.63;;;2.08;;
61978;SDS011;47938;48.176;16.414;2023-01-06T00:31:52;9.73;;;2.08;;
61978;SDS011;47938;48.176;16.414;2023-01-06T00:34:18;10.50;;;1.75;;
61978;SDS011;47938;48.176;16.414;2023-01-06T00:36:43;13.20;;;2.33;;
61978;SDS011;47938;48.176;16.414;2023-01-06T00:39:12;8.82;;;2.08;;
61978;SDS011;47938;48.176;16.414;2023-01-06T00:41:38;10.05;;;1.73;;
61978;SDS011;47938;48.176;16.414;2023-01-06T00:44:04;7.72;;;1.90;;
61978;SDS011;47938;48.176;16.414;2023-01-06T00:46:30;8.93;;;2.13;;
61978;SDS011;47938;48.176;16.414;2023-01-06T00:48:57;7.57;;;1.80;;
61978;SDS011;47938;48.176;16.414;2023-01-06T00:51:23;6.07;;;1.63;;
61978;SDS011;47938;48.176;16.414;2023-01-06T00:53:49;5.22;;;1.60;;
61978;SDS011;47938;48.176;16.414;2023-01-06T00:56:14;7.32;;;2.47;;
61978;SDS011;47938;48.176;16.414;2023-01-06T00:58:40;9.30;;;2.60;;
61978;SDS011;47938;48.176;16.414;2023-01-06T01:01:06;3.80;;;1.83;;
61978;SDS011;47938;48.176;16.414;2023-01-06T01:03:33;12.15;;;2.15;;
61978;SDS011;47938;48.176;16.414;2023-01-06T01:06:01;7.28;;;1.52;;
61978;SDS011;47938;48.176;16.414;2023-01-06T01:08:28;7.93;;;1.95;;
61978;SDS011;47938;48.176;16.414;2023-01-06T01:10:54;13.88;;;2.83;;
61978;SDS011;47938;48.176;16.414;2023-01-06T01:13:20;4.45;;;1.55;;
61978;SDS011;47938;48.176;16.414;2023-01-06T01:15:46;11.43;;;2.22;;
61978;SDS011;47938;48.176;16.414;2023-01-06T01:18:11;10.95;;;2.20;;
61978;SDS011;47938;48.176;16.414;2023-01-06T01:20:37;10.32;;;2.50;;
61978;SDS011;47938;48.176;16.414;2023-01-06T01:23:02;13.73;;;2.30;;
61978;SDS011;47938;48.176;16.414;2023-01-06T01:25:28;8.15;;;1.95;;
61978;SDS011;47938;48.176;16.414;2023-01-06T01:27:54;10.75;;;2.08;;
61978;SDS011;47938;48.176;16.414;2023-01-06T01:30:19;9.98;;;1.85;;
61978;SDS011;47938;48.176;16.414;2023-01-06T01:32:45;8.88;;;1.55;;
61978;SDS011;47938;48.176;16.414;2023-01-06T01:35:11;8.85;;;1.83;;
61978;SDS011;47938;48.176;16.414;2023-01-06T01:37:37;14.30;;;2.55;;
61978;SDS011;47938;48.176;16.414;2023-01-06T01:40:03;10.38;;;2.30;;
61978;SDS011;47938;48.176;16.414;2023-01-06T01:42:30;6.85;;;1.70;;
61978;SDS011;47938;48.176;16.414;2023-01-06T01:49:59;7.78;;;1.98;;
61978;SDS011;47938;48.176;16.414;2023-01-06T01:52:29;7.85;;;1.70;;
61978;SDS011;47938;48.176;16.414;2023-01-06T01:54:56;7.15;;;1.83;;
61978;SDS011;47938;48.176;16.414;2023-01-06T01:57:26;9.45;;;2.10;;
61978;SDS011;47938;48.176;16.414;2023-01-06T01:59:57;8.50;;;1.98;;
61978;SDS011;47938;48.176;16.414;2023-01-06T02:02:24;17.88;;;3.55;;
61978;SDS011;47938;48.176;16.414;2023-01-06T02:04:54;11.85;;;2.20;;
61978;SDS011;47938;48.176;16.414;2023-01-06T02:07:20;6.22;;;1.77;;
61978;SDS011;47938;48.176;16.414;2023-01-06T02:10:07;8.40;;;1.95;;
61978;SDS011;47938;48.176;16.414;2023-01-06T02:12:35;9.05;;;1.92;;
61978;SDS011;47938;48.176;16.414;2023-01-06T02:15:01;6.93;;;2.30;;
61978;SDS011;47938;48.176;16.414;2023-01-06T02:25:39;9.18;;;2.50;;
61978;SDS011;47938;48.176;16.414;2023-01-06T02:39:12;9.00;;;2.47;;
61978;SDS011;47938;48.176;16.414;2023-01-06T02:45:07;8.05;;;2.08;;
61978;SDS011;47938;48.176;16.414;2023-01-06T02:51:03;9.93;;;3.03;;
61978;SDS011;47938;48.176;16.414;2023-01-06T02:56:22;13.45;;;2.58;;
61978;SDS011;47938;48.176;16.414;2023-01-06T02:58:55;6.88;;;2.20;;
61978;SDS011;47938;48.176;16.414;2023-01-06T03:01:27;12.48;;;2.80;;
61978;SDS011;47938;48.176;16.414;2023-01-06T03:04:01;8.25;;;2.15;;
61978;SDS011;47938;48.176;16.414;2023-01-06T03:06:31;10.02;;;2.40;;
61978;SDS011;47938;48.176;16.414;2023-01-06T03:08:59;6.70;;;2.40;;
61978;SDS011;47938;48.176;16.414;2023-01-06T03:11:26;9.30;;;2.38;;
61978;SDS011;47938;48.176;16.414;2023-01-06T03:14:36;12.60;;;2.70;;
61978;SDS011;47938;48.176;16.414;2023-01-06T03:16:53;7.03;;;1.80;;
61978;SDS011;47938;48.176;16.414;2023-01-06T03:19:19;12.30;;;2.20;;
61978;SDS011;47938;48.176;16.414;2023-01-06T03:21:46;8.60;;;1.92;;
61978;SDS011;47938;48.176;16.414;2023-01-06T03:24:14;12.02;;;2.53;;
61978;SDS011;47938;48.176;16.414;2023-01-06T03:26:40;10.38;;;2.03;;
61978;SDS011;47938;48.176;16.414;2023-01-06T03:29:09;7.20;;;1.88;;
61978;SDS011;47938;48.176;16.414;2023-01-06T03:37:03;9.68;;;2.17;;
61978;SDS011;47938;48.176;16.414;2023-01-06T03:39:37;10.00;;;2.40;;
61978;SDS011;47938;48.176;16.414;2023-01-06T03:42:22;8.05;;;1.80;;
61978;SDS011;47938;48.176;16.414;2023-01-06T03:47:36;8.35;;;2.13;;
61978;SDS011;47938;48.176;16.414;2023-01-06T03:52:39;10.38;;;2.20;;
61978;SDS011;47938;48.176;16.414;2023-01-06T03:55:16;9.48;;;2.25;;
61978;SDS011;47938;48.176;16.414;2023-01-06T03:57:48;13.20;;;2.38;;
61978;SDS011;47938;48.176;16.414;2023-01-06T04:02:46;10.68;;;2.83;;
61978;SDS011;47938;48.176;16.414;2023-01-06T04:05:13;8.48;;;2.40;;
61978;SDS011;47938;48.176;16.414;2023-01-06T04:07:40;13.60;;;2.42;;
61978;SDS011;47938;48.176;16.414;2023-01-06T04:10:07;9.07;;;1.95;;
61978;SDS011;47938;48.176;16.414;2023-01-06T04:12:34;9.18;;;1.90;;
61978;SDS011;47938;48.176;16.414;2023-01-06T04:14:59;9.15;;;2.03;;
61978;SDS011;47938;48.176;16.414;2023-01-06T04:17:25;8.60;;;1.98;;
61978;SDS011;47938;48.176;16.414;2023-01-06T04:19:50;7.32;;;1.83;;
61978;SDS011;47938;48.176;16.414;2023-01-06T04:22:16;11.05;;;2.08;;
61978;SDS011;47938;48.176;16.414;2023-01-06T04:24:42;7.63;;;1.92;;
61978;SDS011;47938;48.176;16.414;2023-01-06T04:27:07;6.65;;;2.20;;
61978;SDS011;47938;48.176;16.414;2023-01-06T04:29:33;8.27;;;1.95;;
61978;SDS011;47938;48.176;16.414;2023-01-06T04:31:58;8.18;;;2.40;;
61978;SDS011;47938;48.176;16.414;2023-01-06T04:34:24;9.05;;;2.13;;
61978;SDS011;47938;48.176;16.414;2023-01-06T04:36:49;8.95;;;2.10;;
61978;SDS011;47938;48.176;16.414;2023-01-06T04:39:15;9.02;;;2.10;;
61978;SDS011;47938;48.176;16.414;2023-01-06T04:41:41;10.00;;;1.88;;
61978;SDS011;47938;48.176;16.414;2023-01-06T04:44:06;11.05;;;2.13;;
61978;SDS011;47938;48.176;16.414;2023-01-06T04:46:32;9.93;;;2.63;;
61978;SDS011;47938;48.176;16.414;2023-01-06T04:48:57;12.52;;;2.60;;
61978;SDS011;47938;48.176;16.414;2023-01-06T04:51:23;11.43;;;2.35;;
61978;SDS011;47938;48.176;16.414;2023-01-06T04:53:48;8.10;;;2.20;;
61978;SDS011;47938;48.176;16.414;2023-01-06T04:56:14;8.45;;;2.33;;
61978;SDS011;47938;48.176;16.414;2023-01-06T04:58:40;5.47;;;1.63;;
61978;SDS011;47938;48.176;16.414;2023-01-06T05:01:06;8.93;;;2.00;;
61978;SDS011;47938;48.176;16.414;2023-01-06T05:03:34;10.60;;;2.40;;
61978;SDS011;47938;48.176;16.414;2023-01-06T05:06:03;9.65;;;2.33;;
61978;SDS011;47938;48.176;16.414;2023-01-06T05:08:30;8.55;;;2.20;;
61978;SDS011;47938;48.176;16.414;2023-01-06T05:11:03;6.78;;;2.17;;
61978;SDS011;47938;48.176;16.414;2023-01-06T05:13:33;7.68;;;1.88;;
61978;SDS011;47938;48.176;16.414;2023-01-06T05:15:59;7.18;;;2.03;;
61978;SDS011;47938;48.176;16.414;2023-01-06T05:18:29;8.18;;;2.30;;
61978;SDS011;47938;48.176;16.414;2023-01-06T05:20:54;14.48;;;2.50;;
61978;SDS011;47938;48.176;16.414;2023-01-06T05:23:20;10.68;;;2.17;;
61978;SDS011;47938;48.176;16.414;2023-01-06T05:25:46;14.27;;;3.20;;
61978;SDS011;47938;48.176;16.414;2023-01-06T05:28:15;9.75;;;2.03;;
61978;SDS011;47938;48.176;16.414;2023-01-06T05:30:40;17.90;;;2.80;;
61978;SDS011;47938;48.176;16.414;2023-01-06T05:33:06;6.60;;;1.90;;
61978;SDS011;47938;48.176;16.414;2023-01-06T05:35:32;7.47;;;2.28;;
61978;SDS011;47938;48.176;16.414;2023-01-06T05:37:57;15.35;;;2.53;;
61978;SDS011;47938;48.176;16.414;2023-01-06T05:40:23;9.98;;;2.28;;
61978;SDS011;47938;48.176;16.414;2023-01-06T05:42:52;8.75;;;2.58;;
61978;SDS011;47938;48.176;16.414;2023-01-06T05:45:18;11.02;;;2.03;;
61978;SDS011;47938;48.176;16.414;2023-01-06T05:47:44;11.93;;;2.50;;
61978;SDS011;47938;48.176;16.414;2023-01-06T05:50:09;14.23;;;3.17;;
61978;SDS011;47938;48.176;16.414;2023-01-06T05:52:35;14.00;;;2.60;;
61978;SDS011;47938;48.176;16.414;2023-01-06T05:55:00;15.35;;;3.15;;
61978;SDS011;47938;48.176;16.414;2023-01-06T05:57:26;11.73;;;2.65;;
61978;SDS011;47938;48.176;16.414;2023-01-06T05:59:52;12.00;;;2.58;;
61978;SDS011;47938;48.176;16.414;2023-01-06T06:02:17;12.05;;;2.33;;
61978;SDS011;47938;48.176;16.414;2023-01-06T06:04:43;12.30;;;2.70;;
61978;SDS011;47938;48.176;16.414;2023-01-06T06:07:08;9.48;;;2.50;;
61978;SDS011;47938;48.176;16.414;2023-01-06T06:09:34;9.93;;;2.53;;
61978;SDS011;47938;48.176;16.414;2023-01-06T06:11:59;10.05;;;2.90;;
61978;SDS011;47938;48.176;16.414;2023-01-06T06:14:25;9.75;;;2.50;;
61978;SDS011;47938;48.176;16.414;2023-01-06T06:16:51;8.23;;;2.30;;
61978;SDS011;47938;48.176;16.414;2023-01-06T06:19:16;12.00;;;3.15;;
61978;SDS011;47938;48.176;16.414;2023-01-06T06:21:42;12.82;;;2.90;;
61978;SDS011;47938;48.176;16.414;2023-01-06T06:24:08;15.35;;;2.55;;
61978;SDS011;47938;48.176;16.414;2023-01-06T06:26:33;13.13;;;2.70;;
61978;SDS011;47938;48.176;16.414;2023-01-06T06:28:59;7.88;;;2.40;;
61978;SDS011;47938;48.176;16.414;2023-01-06T06:31:26;11.60;;;2.53;;
61978;SDS011;47938;48.176;16.414;2023-01-06T06:33:57;10.60;;;2.38;;
61978;SDS011;47938;48.176;16.414;2023-01-06T06:36:24;9.55;;;2.67;;
61978;SDS011;47938;48.176;16.414;2023-01-06T06:38:50;12.05;;;3.13;;
61978;SDS011;47938;48.176;16.414;2023-01-06T06:41:17;14.35;;;2.63;;
61978;SDS011;47938;48.176;16.414;2023-01-06T06:43:43;10.43;;;2.88;;
61978;SDS011;47938;48.176;16.414;2023-01-06T06:46:09;13.27;;;2.40;;
61978;SDS011;47938;48.176;16.414;2023-01-06T06:48:35;11.32;;;3.15;;
61978;SDS011;47938;48.176;16.414;2023-01-06T06:51:08;19.33;;;3.53;;
61978;SDS011;47938;48.176;16.414;2023-01-06T06:53:35;8.57;;;2.08;;
61978;SDS011;47938;48.176;16.414;2023-01-06T06:56:03;11.45;;;2.50;;
61978;SDS011;47938;48.176;16.414;2023-01-06T06:58:30;9.25;;;2.63;;
61978;SDS011;47938;48.176;16.414;2023-01-06T07:00:55;9.82;;;2.38;;
61978;SDS011;47938;48.176;16.414;2023-01-06T07:03:21;11.75;;;2.70;;
61978;SDS011;47938;48.176;16.414;2023-01-06T07:05:47;12.00;;;2.80;;
61978;SDS011;47938;48.176;16.414;2023-01-06T07:08:14;9.48;;;2.72;;
61978;SDS011;47938;48.176;16.414;2023-01-06T07:10:40;10.35;;;2.28;;
61978;SDS011;47938;48.176;16.414;2023-01-06T07:13:06;11.85;;;2.15;;
61978;SDS011;47938;48.176;16.414;2023-01-06T07:15:32;10.73;;;2.55;;
61978;SDS011;47938;48.176;16.414;2023-01-06T07:17:58;15.05;;;2.75;;
61978;SDS011;47938;48.176;16.414;2023-01-06T07:20:32;8.82;;;2.25;;
61978;SDS011;47938;48.176;16.414;2023-01-06T07:22:58;13.38;;;2.88;;
61978;SDS011;47938;48.176;16.414;2023-01-06T07:25:24;11.27;;;3.42;;
61978;SDS011;47938;48.176;16.414;2023-01-06T07:27:53;10.30;;;3.80;;
61978;SDS011;47938;48.176;16.414;2023-01-06T07:30:20;13.48;;;3.80;;
61978;SDS011;47938;48.176;16.414;2023-01-06T07:32:45;15.40;;;3.08;;
61978;SDS011;47938;48.176;16.414;2023-01-06T07:35:11;9.60;;;2.83;;
61978;SDS011;47938;48.176;16.414;2023-01-06T07:37:37;15.65;;;3.53;;
61978;SDS011;47938;48.176;16.414;2023-01-06T07:40:02;15.65;;;3.72;;
61978;SDS011;47938;48.176;16.414;2023-01-06T07:42:28;12.60;;;2.92;;
61978;SDS011;47938;48.176;16.414;2023-01-06T07:44:54;13.05;;;3.03;;
61978;SDS011;47938;48.176;16.414;2023-01-06T07:47:19;17.63;;;3.05;;
61978;SDS011;47938;48.176;16.414;2023-01-06T07:49:45;12.02;;;3.03;;
61978;SDS011;47938;48.176;16.414;2023-01-06T07:52:11;10.38;;;2.50;;
61978;SDS011;47938;48.176;16.414;2023-01-06T07:54:36;13.10;;;3.40;;
61978;SDS011;47938;48.176;16.414;2023-01-06T07:57:02;8.43;;;2.90;;
61978;SDS011;47938;48.176;16.414;2023-01-06T07:59:27;13.45;;;2.78;;
61978;SDS011;47938;48.176;16.414;2023-01-06T08:01:53;12.52;;;2.97;;
61978;SDS011;47938;48.176;16.414;2023-01-06T08:04:19;10.05;;;2.85;;
61978;SDS011;47938;48.176;16.414;2023-01-06T08:06:44;11.88;;;3.58;;
61978;SDS011;47938;48.176;16.414;2023-01-06T08:09:10;11.27;;;2.80;;
61978;SDS011;47938;48.176;16.414;2023-01-06T08:11:35;8.20;;;2.78;;
61978;SDS011;47938;48.176;16.414;2023-01-06T08:14:01;11.35;;;3.63;;
61978;SDS011;47938;48.176;16.414;2023-01-06T08:16:27;14.27;;;4.13;;
61978;SDS011;47938;48.176;16.414;2023-01-06T08:18:52;16.30;;;4.72;;
61978;SDS011;47938;48.176;16.414;2023-01-06T08:21:18;16.15;;;4.07;;
61978;SDS011;47938;48.176;16.414;2023-01-06T08:23:43;15.85;;;4.68;;
61978;SDS011;47938;48.176;16.414;2023-01-06T08:26:10;15.50;;;3.83;;
61978;SDS011;47938;48.176;16.414;2023-01-06T08:28:37;15.00;;;3.45;;
61978;SDS011;47938;48.176;16.414;2023-01-06T08:31:03;12.48;;;3.83;;
61978;SDS011;47938;48.176;16.414;2023-01-06T08:33:32;11.45;;;4.25;;
61978;SDS011;47938;48.176;16.414;2023-01-06T08:35:58;9.27;;;4.30;;
61978;SDS011;47938;48.176;16.414;2023-01-06T08:38:24;12.85;;;4.50;;
61978;SDS011;47938;48.176;16.414;2023-01-06T08:40:51;14.85;;;4.22;;
61978;SDS011;47938;48.176;16.414;2023-01-06T08:43:17;17.10;;;4.50;;
61978;SDS011;47938;48.176;16.414;2023-01-06T08:45:43;11.95;;;3.70;;
61978;SDS011;47938;48.176;16.414;2023-01-06T08:48:09;13.82;;;4.97;;
61978;SDS011;47938;48.176;16.414;2023-01-06T08:50:36;15.02;;;5.10;;
61978;SDS011;47938;48.176;16.414;2023-01-06T08:53:02;9.65;;;4.30;;
61978;SDS011;47938;48.176;16.414;2023-01-06T08:55:28;17.45;;;4.97;;
61978;SDS011;47938;48.176;16.414;2023-01-06T08:57:53;20.05;;;9.20;;
61978;SDS011;47938;48.176;16.414;2023-01-06T09:00:19;18.33;;;5.35;;
61978;SDS011;47938;48.176;16.414;2023-01-06T09:02:45;15.20;;;5.80;;
61978;SDS011;47938;48.176;16.414;2023-01-06T09:05:10;14.57;;;5.00;;
61978;SDS011;47938;48.176;16.414;2023-01-06T09:07:36;15.80;;;4.72;;
61978;SDS011;47938;48.176;16.414;2023-01-06T09:10:02;11.23;;;4.88;;
61978;SDS011;47938;48.176;16.414;2023-01-06T09:12:27;10.40;;;3.83;;
61978;SDS011;47938;48.176;16.414;2023-01-06T09:14:53;14.00;;;4.47;;
61978;SDS011;47938;48.176;16.414;2023-01-06T09:17:19;9.80;;;4.32;;
61978;SDS011;47938;48.176;16.414;2023-01-06T09:19:44;12.82;;;3.83;;
61978;SDS011;47938;48.176;16.414;2023-01-06T09:22:10;11.52;;;3.63;;
61978;SDS011;47938;48.176;16.414;2023-01-06T09:24:36;13.70;;;3.35;;
61978;SDS011;47938;48.176;16.414;2023-01-06T09:27:01;10.18;;;3.70;;
61978;SDS011;47938;48.176;16.414;2023-01-06T09:29:27;14.98;;;3.22;;
61978;SDS011;47938;48.176;16.414;2023-01-06T09:31:52;10.50;;;3.33;;
61978;SDS011;47938;48.176;16.414;2023-01-06T09:34:18;8.45;;;3.20;;
61978;SDS011;47938;48.176;16.414;2023-01-06T09:36:44;14.38;;;3.53;;
61978;SDS011;47938;48.176;16.414;2023-01-06T09:39:09;11.02;;;2.92;;
61978;SDS011;47938;48.176;16.414;2023-01-06T09:41:57;8.73;;;2.97;;
61978;SDS011;47938;48.176;16.414;2023-01-06T09:44:44;10.68;;;4.10;;
61978;SDS011;47938;48.176;16.414;2023-01-06T09:47:17;11.65;;;4.20;;
61978;SDS011;47938;48.176;16.414;2023-01-06T09:52:28;17.10;;;4.63;;
61978;SDS011;47938;48.176;16.414;2023-01-06T09:55:17;13.80;;;4.75;;
61978;SDS011;47938;48.176;16.414;2023-01-06T09:58:04;16.90;;;6.13;;
61978;SDS011;47938;48.176;16.414;2023-01-06T10:03:13;17.02;;;5.40;;
61978;SDS011;47938;48.176;16.414;2023-01-06T10:12:09;12.38;;;3.92;;
61978;SDS011;47938;48.176;16.414;2023-01-06T10:22:21;14.00;;;4.93;;
61978;SDS011;47938;48.176;16.414;2023-01-06T10:25:10;13.15;;;4.20;;
61978;SDS011;47938;48.176;16.414;2023-01-06T10:28:39;12.93;;;3.63;;
61978;SDS011;47938;48.176;16.414;2023-01-06T10:30:53;16.75;;;5.35;;
61978;SDS011;47938;48.176;16.414;2023-01-06T10:35:50;28.85;;;13.32;;
61978;SDS011;47938;48.176;16.414;2023-01-06T10:38:20;12.68;;;3.47;;
61978;SDS011;47938;48.176;16.414;2023-01-06T10:43:56;8.75;;;2.88;;
61978;SDS011;47938;48.176;16.414;2023-01-06T10:46:22;10.60;;;3.03;;
61978;SDS011;47938;48.176;16.414;2023-01-06T10:48:54;12.13;;;3.70;;
61978;SDS011;47938;48.176;16.414;2023-01-06T10:51:29;9.95;;;3.20;;
61978;SDS011;47938;48.176;16.414;2023-01-06T10:54:06;10.63;;;2.65;;
61978;SDS011;47938;48.176;16.414;2023-01-06T10:56:38;9.68;;;3.30;;
61978;SDS011;47938;48.176;16.414;2023-01-06T10:59:08;8.82;;;2.70;;
61978;SDS011;47938;48.176;16.414;2023-01-06T11:01:35;4.80;;;2.03;;
61978;SDS011;47938;48.176;16.414;2023-01-06T11:04:18;6.63;;;2.13;;
61978;SDS011;47938;48.176;16.414;2023-01-06T11:06:48;8.80;;;2.22;;
61978;SDS011;47938;48.176;16.414;2023-01-06T11:11:53;5.65;;;1.90;;
61978;SDS011;47938;48.176;16.414;2023-01-06T11:14:24;4.82;;;1.88;;
61978;SDS011;47938;48.176;16.414;2023-01-06T11:16:58;6.05;;;2.20;;
61978;SDS011;47938;48.176;16.414;2023-01-06T11:19:33;12.02;;;3.20;;
61978;SDS011;47938;48.176;16.414;2023-01-06T11:22:01;5.00;;;2.15;;
61978;SDS011;47938;48.176;16.414;2023-01-06T11:24:27;5.82;;;2.25;;
61978;SDS011;47938;48.176;16.414;2023-01-06T11:29:27;11.95;;;2.75;;
61978;SDS011;47938;48.176;16.414;2023-01-06T11:32:15;7.38;;;3.30;;
61978;SDS011;47938;48.176;16.414;2023-01-06T11:34:58;7.70;;;2.83;;
61978;SDS011;47938;48.176;16.414;2023-01-06T11:37:35;6.05;;;2.00;;
61978;SDS011;47938;48.176;16.414;2023-01-06T11:42:49;8.10;;;2.60;;
61978;SDS011;47938;48.176;16.414;2023-01-06T11:47:53;7.38;;;1.90;;
61978;SDS011;47938;48.176;16.414;2023-01-06T11:50:19;6.15;;;2.03;;
61978;SDS011;47938;48.176;16.414;2023-01-06T11:52:57;5.90;;;1.92;;
61978;SDS011;47938;48.176;16.414;2023-01-06T11:55:24;5.18;;;1.65;;
61978;SDS011;47938;48.176;16.414;2023-01-06T11:58:13;5.53;;;1.80;;
61978;SDS011;47938;48.176;16.414;2023-01-06T12:00:49;6.03;;;2.28;;
61978;SDS011;47938;48.176;16.414;2023-01-06T12:06:21;8.63;;;2.17;;
61978;SDS011;47938;48.176;16.414;2023-01-06T12:08:57;6.93;;;2.10;;
61978;SDS011;47938;48.176;16.414;2023-01-06T12:14:11;6.32;;;1.50;;
61978;SDS011;47938;48.176;16.414;2023-01-06T12:25:01;3.85;;;1.25;;
61978;SDS011;47938;48.176;16.414;2023-01-06T12:27:30;5.47;;;1.40;;
61978;SDS011;47938;48.176;16.414;2023-01-06T12:29:57;5.82;;;1.75;;
61978;SDS011;47938;48.176;16.414;2023-01-06T12:32:26;4.80;;;1.85;;
61978;SDS011;47938;48.176;16.414;2023-01-06T12:35:01;5.72;;;1.80;;
61978;SDS011;47938;48.176;16.414;2023-01-06T12:37:31;11.50;;;1.88;;
61978;SDS011;47938;48.176;16.414;2023-01-06T12:40:28;5.72;;;1.58;;
61978;SDS011;47938;48.176;16.414;2023-01-06T12:48:58;5.57;;;1.83;;
61978;SDS011;47938;48.176;16.414;2023-01-06T12:51:48;3.60;;;1.50;;
61978;SDS011;47938;48.176;16.414;2023-01-06T12:54:32;7.88;;;1.65;;
61978;SDS011;47938;48.176;16.414;2023-01-06T12:57:11;5.93;;;1.40;;
61978;SDS011;47938;48.176;16.414;2023-01-06T13:08:56;9.65;;;1.92;;
61978;SDS011;47938;48.176;16.414;2023-01-06T13:21:54;4.93;;;2.17;;
61978;SDS011;47938;48.176;16.414;2023-01-06T13:30:41;4.75;;;1.83;;
61978;SDS011;47938;48.176;16.414;2023-01-06T13:36:03;6.47;;;1.30;;
61978;SDS011;47938;48.176;16.414;2023-01-06T13:38:57;4.80;;;1.67;;
61978;SDS011;47938;48.176;16.414;2023-01-06T13:41:33;5.65;;;1.27;;
61978;SDS011;47938;48.176;16.414;2023-01-06T13:44:01;3.38;;;1.08;;
61978;SDS011;47938;48.176;16.414;2023-01-06T13:46:29;6.72;;;1.77;;
61978;SDS011;47938;48.176;16.414;2023-01-06T13:48:59;5.35;;;1.30;;
61978;SDS011;47938;48.176;16.414;2023-01-06T13:51:29;4.70;;;1.15;;
61978;SDS011;47938;48.176;16.414;2023-01-06T13:53:57;5.13;;;1.50;;
61978;SDS011;47938;48.176;16.414;2023-01-06T13:56:23;4.43;;;1.50;;
61978;SDS011;47938;48.176;16.414;2023-01-06T13:58:50;6.38;;;2.40;;
61978;SDS011;47938;48.176;16.414;2023-01-06T14:01:36;4.90;;;1.58;;
61978;SDS011;47938;48.176;16.414;2023-01-06T14:07:02;5.82;;;1.85;;
61978;SDS011;47938;48.176;16.414;2023-01-06T14:09:28;7.82;;;2.40;;
61978;SDS011;47938;48.176;16.414;2023-01-06T14:12:20;6.13;;;1.98;;
61978;SDS011;47938;48.176;16.414;2023-01-06T14:14:53;8.57;;;2.20;;
61978;SDS011;47938;48.176;16.414;2023-01-06T14:17:39;5.47;;;1.50;;
61978;SDS011;47938;48.176;16.414;2023-01-06T14:20:20;13.40;;;3.38;;
61978;SDS011;47938;48.176;16.414;2023-01-06T14:22:57;5.10;;;1.20;;
61978;SDS011;47938;48.176;16.414;2023-01-06T14:25:23;3.75;;;1.40;;
61978;SDS011;47938;48.176;16.414;2023-01-06T14:35:10;5.35;;;1.80;;
61978;SDS011;47938;48.176;16.414;2023-01-06T14:37:41;5.32;;;1.88;;
61978;SDS011;47938;48.176;16.414;2023-01-06T14:40:24;9.18;;;2.05;;
61978;SDS011;47938;48.176;16.414;2023-01-06T14:42:53;4.82;;;1.92;;
61978;SDS011;47938;48.176;16.414;2023-01-06T14:45:25;5.78;;;2.00;;
61978;SDS011;47938;48.176;16.414;2023-01-06T14:48:03;5.78;;;1.98;;
61978;SDS011;47938;48.176;16.414;2023-01-06T14:50:40;5.65;;;2.40;;
61978;SDS011;47938;48.176;16.414;2023-01-06T14:53:08;5.50;;;2.10;;
61978;SDS011;47938;48.176;16.414;2023-01-06T14:55:51;6.75;;;2.33;;
61978;SDS011;47938;48.176;16.414;2023-01-06T14:58:31;7.55;;;3.10;;
61978;SDS011;47938;48.176;16.414;2023-01-06T15:00:58;9.35;;;3.40;;
61978;SDS011;47938;48.176;16.414;2023-01-06T15:03:25;5.53;;;3.20;;
61978;SDS011;47938;48.176;16.414;2023-01-06T15:09:09;5.55;;;2.70;;
61978;SDS011;47938;48.176;16.414;2023-01-06T15:11:44;10.77;;;3.15;;
61978;SDS011;47938;48.176;16.414;2023-01-06T15:14:30;7.28;;;2.95;;
61978;SDS011;47938;48.176;16.414;2023-01-06T15:16:58;11.55;;;4.00;;
61978;SDS011;47938;48.176;16.414;2023-01-06T15:19:25;7.10;;;2.95;;
61978;SDS011;47938;48.176;16.414;2023-01-06T15:21:51;6.47;;;2.80;;
61978;SDS011;47938;48.176;16.414;2023-01-06T15:24:20;11.35;;;2.90;;
61978;SDS011;47938;48.176;16.414;2023-01-06T15:26:51;12.30;;;2.83;;
61978;SDS011;47938;48.176;16.414;2023-01-06T15:29:20;9.52;;;2.97;;
61978;SDS011;47938;48.176;16.414;2023-01-06T15:31:50;9.32;;;2.90;;
61978;SDS011;47938;48.176;16.414;2023-01-06T15:34:35;8.68;;;2.80;;
61978;SDS011;47938;48.176;16.414;2023-01-06T15:37:05;7.88;;;2.28;;
61978;SDS011;47938;48.176;16.414;2023-01-06T15:39:32;5.70;;;2.72;;
61978;SDS011;47938;48.176;16.414;2023-01-06T15:41:59;6.63;;;3.55;;
61978;SDS011;47938;48.176;16.414;2023-01-06T15:44:29;9.30;;;3.22;;
61978;SDS011;47938;48.176;16.414;2023-01-06T15:49:38;3.22;;;1.83;;
61978;SDS011;47938;48.176;16.414;2023-01-06T15:52:19;5.93;;;2.10;;
61978;SDS011;47938;48.176;16.414;2023-01-06T15:54:47;6.80;;;2.45;;
61978;SDS011;47938;48.176;16.414;2023-01-06T15:57:13;5.00;;;2.30;;
61978;SDS011;47938;48.176;16.414;2023-01-06T15:59:39;3.75;;;1.92;;
61978;SDS011;47938;48.176;16.414;2023-01-06T16:02:15;4.85;;;2.15;;
61978;SDS011;47938;48.176;16.414;2023-01-06T16:04:43;5.95;;;1.90;;
61978;SDS011;47938;48.176;16.414;2023-01-06T16:07:19;7.55;;;2.30;;
61978;SDS011;47938;48.176;16.414;2023-01-06T16:10:00;4.45;;;1.88;;
61978;SDS011;47938;48.176;16.414;2023-01-06T16:12:25;6.13;;;1.92;;
61978;SDS011;47938;48.176;16.414;2023-01-06T16:14:51;6.47;;;2.05;;
61978;SDS011;47938;48.176;16.414;2023-01-06T16:17:23;8.75;;;2.53;;
61978;SDS011;47938;48.176;16.414;2023-01-06T16:19:52;6.00;;;2.13;;
61978;SDS011;47938;48.176;16.414;2023-01-06T16:22:24;6.38;;;2.05;;
61978;SDS011;47938;48.176;16.414;2023-01-06T16:24:57;4.10;;;1.60;;
61978;SDS011;47938;48.176;16.414;2023-01-06T16:27:25;6.03;;;1.95;;
61978;SDS011;47938;48.176;16.414;2023-01-06T16:32:53;9.68;;;2.30;;
61978;SDS011;47938;48.176;16.414;2023-01-06T16:35:21;8.18;;;2.60;;
61978;SDS011;47938;48.176;16.414;2023-01-06T16:37:48;5.68;;;2.40;;
61978;SDS011;47938;48.176;16.414;2023-01-06T16:40:15;6.03;;;2.58;;
61978;SDS011;47938;48.176;16.414;2023-01-06T16:42:41;8.13;;;2.72;;
61978;SDS011;47938;48.176;16.414;2023-01-06T16:47:39;7.68;;;3.08;;
61978;SDS011;47938;48.176;16.414;2023-01-06T16:50:19;9.35;;;3.30;;
61978;SDS011;47938;48.176;16.414;2023-01-06T16:53:01;7.57;;;3.20;;
61978;SDS011;47938;48.176;16.414;2023-01-06T16:55:27;9.40;;;3.75;;
61978;SDS011;47938;48.176;16.414;2023-01-06T16:57:53;8.52;;;3.60;;
61978;SDS011;47938;48.176;16.414;2023-01-06T17:00:21;7.18;;;2.88;;
61978;SDS011;47938;48.176;16.414;2023-01-06T17:02:48;10.95;;;4.18;;
61978;SDS011;47938;48.176;16.414;2023-01-06T17:05:22;13.13;;;3.20;;
61978;SDS011;47938;48.176;16.414;2023-01-06T17:07:50;8.15;;;4.32;;
61978;SDS011;47938;48.176;16.414;2023-01-06T17:10:20;8.80;;;3.85;;
61978;SDS011;47938;48.176;16.414;2023-01-06T17:12:50;5.15;;;2.70;;